createdAt,value
2018-04-12T00:00:49.864Z,10.70
2018-04-12T00:01:49.804Z,10.30
2018-04-12T00:02:49.685Z,10.20
2018-04-12T00:03:49.723Z,10.10
2018-04-12T00:04:49.512Z,10.60
2018-04-12T00:05:49.588Z,10.80
2018-04-12T00:06:49.372Z,10.40
2018-04-12T00:09:31.557Z,10.60
2018-04-12T00:10:31.533Z,10.80
2018-04-12T00:11:31.411Z,11.70
2018-04-12T00:12:31.445Z,11.40
2018-04-12T00:13:31.247Z,11.30
2018-04-12T00:14:31.250Z,11.10
2018-04-12T00:15:31.071Z,11.30
2018-04-12T00:16:31.101Z,11.30
2018-04-12T00:17:30.918Z,10.90
2018-04-12T00:18:30.973Z,11.80
2018-04-12T00:19:30.766Z,12.30
2018-04-12T00:20:30.781Z,12.00
2018-04-12T00:21:30.621Z,15.80
2018-04-12T00:22:30.595Z,15.70
2018-04-12T00:23:30.446Z,14.90
2018-04-12T00:24:30.399Z,13.50
2018-04-12T00:25:30.280Z,13.30
2018-04-12T00:26:30.340Z,12.40
2018-04-12T00:27:30.124Z,14.40
2018-04-12T00:28:30.117Z,21.30
2018-04-12T00:29:29.960Z,17.20
2018-04-12T00:30:29.922Z,17.10
2018-04-12T00:31:29.807Z,18.60
2018-04-12T00:32:29.863Z,17.30
2018-04-12T00:33:29.648Z,20.30
2018-04-12T00:34:29.644Z,19.80
2018-04-12T00:35:29.517Z,20.70
2018-04-12T00:36:29.454Z,22.20
2018-04-12T00:37:29.344Z,24.70
2018-04-12T00:38:29.371Z,26.30
2018-04-12T00:39:29.160Z,24.20
2018-04-12T00:40:29.174Z,23.30
2018-04-12T00:41:29.020Z,22.60
2018-04-12T00:42:29.013Z,23.70
2018-04-12T00:43:28.845Z,22.70
2018-04-12T00:44:28.887Z,25.90
2018-04-12T00:45:28.683Z,27.10
2018-04-12T00:46:28.700Z,31.20
2018-04-12T00:47:28.573Z,32.40
2018-04-12T00:48:28.507Z,32.60
2018-04-12T00:49:28.365Z,33.30
2018-04-12T00:50:28.431Z,34.50
2018-04-12T00:51:28.216Z,34.80
2018-04-12T00:52:28.268Z,37.60
2018-04-12T00:53:28.065Z,39.00
2018-04-12T00:54:28.041Z,39.10
2018-04-12T00:55:27.895Z,38.70
2018-04-12T00:56:27.842Z,40.10
2018-04-12T00:57:27.732Z,42.30
2018-04-12T00:58:27.783Z,40.30
2018-04-12T00:59:27.573Z,42.90
2018-04-12T01:00:27.586Z,42.40
2018-04-12T01:01:27.413Z,42.50
2018-04-12T01:02:27.370Z,43.10
2018-04-12T01:03:27.288Z,43.40
2018-04-12T01:04:27.411Z,44.30
2018-04-12T01:05:27.096Z,44.80
2018-04-12T01:06:27.613Z,44.80
2018-04-12T01:07:26.948Z,43.70
2018-04-12T01:08:26.930Z,43.50
2018-04-12T01:09:26.778Z,43.70
2018-04-12T01:10:26.815Z,44.90
2018-04-12T01:11:26.638Z,46.00
2018-04-12T01:12:26.623Z,44.00
2018-04-12T01:13:26.489Z,47.00
2018-04-12T01:14:26.660Z,48.10
2018-04-12T01:15:26.304Z,48.20
2018-04-12T01:16:26.339Z,46.30
2018-04-12T01:17:26.146Z,45.40
2018-04-12T01:18:26.143Z,48.50
2018-04-12T01:19:26.014Z,47.80
2018-04-12T01:22:08.068Z,47.10
2018-04-12T01:23:08.057Z,48.10
2018-04-12T01:24:07.917Z,48.70
2018-04-12T01:25:07.908Z,49.00
2018-04-12T01:26:07.756Z,48.70
2018-04-12T01:27:07.780Z,48.70
2018-04-12T01:28:07.595Z,47.90
2018-04-12T01:29:07.536Z,48.50
2018-04-12T01:30:07.449Z,48.30
2018-04-12T01:31:07.394Z,48.80
2018-04-12T01:32:07.283Z,49.40
2018-04-12T01:33:07.307Z,49.40
2018-04-12T01:34:07.123Z,49.40
2018-04-12T01:35:07.142Z,49.90
2018-04-12T01:36:06.956Z,50.00
2018-04-12T01:37:06.920Z,49.30
2018-04-12T01:38:06.802Z,49.40
2018-04-12T01:39:06.835Z,50.70
2018-04-12T01:40:06.677Z,51.70
2018-04-12T01:41:06.666Z,51.30
2018-04-12T01:42:06.490Z,49.90
2018-04-12T01:43:06.450Z,50.60
2018-04-12T01:44:06.376Z,51.60
2018-04-12T01:45:06.403Z,50.70
2018-04-12T01:46:06.169Z,53.70
2018-04-12T01:47:06.193Z,52.50
2018-04-12T01:48:06.013Z,53.40
2018-04-12T01:49:05.976Z,52.50
2018-04-12T01:50:05.861Z,51.80
2018-04-12T01:51:05.890Z,50.20
2018-04-12T01:52:05.686Z,53.50
2018-04-12T01:53:05.693Z,54.30
2018-04-12T01:54:05.525Z,54.30
2018-04-12T01:55:05.550Z,53.40
2018-04-12T01:56:05.367Z,52.90
2018-04-12T01:57:05.432Z,53.00
2018-04-12T01:58:05.210Z,56.20
2018-04-12T01:59:05.233Z,55.20
2018-04-12T02:00:05.078Z,54.60
2018-04-12T02:01:05.082Z,55.30
2018-04-12T02:02:04.912Z,55.40
2018-04-12T02:03:04.945Z,56.20
2018-04-12T02:04:04.732Z,57.40
2018-04-12T02:05:04.751Z,56.60
2018-04-12T02:06:04.600Z,57.30
2018-04-12T02:07:04.664Z,55.90
2018-04-12T02:08:04.423Z,56.60
2018-04-12T02:09:04.366Z,57.10
2018-04-12T02:10:04.270Z,60.10
2018-04-12T02:11:04.325Z,60.30
2018-04-12T02:12:04.098Z,58.60
2018-04-12T02:13:04.083Z,60.60
2018-04-12T02:14:03.938Z,59.80
2018-04-12T02:15:03.893Z,58.00
2018-04-12T02:16:03.792Z,59.60
2018-04-12T02:17:03.809Z,58.80
2018-04-12T02:18:03.626Z,59.40
2018-04-12T02:19:03.623Z,60.00
2018-04-12T02:20:03.479Z,61.40
2018-04-12T02:21:03.492Z,61.40
2018-04-12T02:22:03.322Z,61.70
2018-04-12T02:23:03.338Z,64.20
2018-04-12T02:24:03.139Z,62.60
2018-04-12T02:25:03.139Z,64.20
2018-04-12T02:26:03.002Z,66.30
2018-04-12T02:27:02.993Z,63.90
2018-04-12T02:28:02.821Z,64.70
2018-04-12T02:29:02.858Z,68.90
2018-04-12T02:30:02.663Z,67.20
2018-04-12T02:31:02.674Z,68.50
2018-04-12T02:32:02.523Z,69.40
2018-04-12T02:33:02.453Z,68.60
2018-04-12T02:34:02.340Z,68.50
2018-04-12T02:35:02.483Z,70.20
2018-04-12T02:36:02.185Z,70.00
2018-04-12T02:37:02.229Z,72.90
2018-04-12T02:38:02.021Z,76.50
2018-04-12T02:39:02.007Z,75.80
2018-04-12T02:40:01.867Z,75.60
2018-04-12T02:41:01.920Z,75.50
2018-04-12T02:42:01.708Z,75.70
2018-04-12T02:43:01.872Z,75.90
2018-04-12T02:44:01.543Z,77.50
2018-04-12T02:45:01.544Z,76.70
2018-04-12T02:46:01.389Z,77.80
2018-04-12T02:47:01.354Z,79.10
2018-04-12T02:48:01.251Z,75.50
2018-04-12T02:49:01.262Z,78.00
2018-04-12T02:50:01.073Z,77.40
2018-04-12T02:51:01.064Z,78.10
2018-04-12T02:52:00.912Z,77.00
2018-04-12T02:53:00.907Z,77.10
2018-04-12T02:54:00.770Z,76.30
2018-04-12T02:55:00.782Z,79.40
2018-04-12T02:56:00.596Z,77.10
2018-04-12T02:57:00.592Z,78.70
2018-04-12T02:58:00.451Z,75.30
2018-04-12T02:59:00.428Z,78.80
2018-04-12T03:00:00.264Z,76.60
2018-04-12T03:01:00.311Z,79.00
2018-04-12T03:02:00.122Z,77.20
2018-04-12T03:03:00.124Z,79.80
2018-04-12T03:03:59.984Z,78.90
2018-04-12T03:04:59.926Z,77.30
2018-04-12T03:05:59.797Z,76.70
2018-04-12T03:06:59.842Z,77.50
2018-04-12T03:07:59.640Z,80.20
2018-04-12T03:08:59.687Z,79.20
2018-04-12T03:09:59.470Z,76.70
2018-04-12T03:10:59.457Z,80.50
2018-04-12T03:11:59.316Z,79.00
2018-04-12T03:12:59.360Z,82.60
2018-04-12T03:13:59.170Z,83.50
2018-04-12T03:14:59.168Z,84.10
2018-04-12T03:15:59.023Z,83.70
2018-04-12T03:16:58.983Z,84.90
2018-04-12T03:17:58.840Z,83.80
2018-04-12T03:18:58.923Z,83.20
2018-04-12T03:19:58.670Z,80.80
2018-04-12T03:20:58.731Z,83.30
2018-04-12T03:21:58.524Z,84.70
2018-04-12T03:22:58.506Z,84.30
2018-04-12T03:23:58.365Z,85.20
2018-04-12T03:24:58.355Z,83.50
2018-04-12T03:25:58.238Z,83.70
2018-04-12T03:26:58.222Z,84.20
2018-04-12T03:27:58.041Z,83.10
2018-04-12T03:28:58.039Z,79.70
2018-04-12T03:29:57.898Z,79.00
2018-04-12T03:30:57.841Z,79.10
2018-04-12T03:31:57.722Z,79.50
2018-04-12T03:32:57.749Z,80.10
2018-04-12T03:33:57.568Z,81.90
2018-04-12T03:34:57.598Z,82.30
2018-04-12T03:35:57.407Z,83.00
2018-04-12T03:36:57.365Z,82.40
2018-04-12T03:37:57.248Z,81.80
2018-04-12T03:38:57.281Z,82.30
2018-04-12T03:39:57.115Z,80.30
2018-04-12T03:40:57.005Z,81.30
2018-04-12T03:41:56.982Z,83.70
2018-04-12T03:42:56.896Z,83.30
2018-04-12T03:43:56.766Z,80.10
2018-04-12T03:44:56.735Z,79.10
2018-04-12T03:45:56.600Z,81.30
2018-04-12T03:46:56.614Z,80.90
2018-04-12T03:47:56.442Z,80.60
2018-04-12T03:48:56.424Z,82.80
2018-04-12T03:49:56.306Z,78.90
2018-04-12T03:50:56.335Z,81.20
2018-04-12T03:51:56.150Z,82.10
2018-04-12T03:52:56.146Z,81.00
2018-04-12T03:53:55.972Z,79.80
2018-04-12T03:54:55.961Z,80.50
2018-04-12T03:55:55.821Z,79.70
2018-04-12T03:56:55.766Z,81.30
2018-04-12T03:57:55.656Z,78.40
2018-04-12T03:58:55.707Z,80.80
2018-04-12T03:59:55.487Z,82.20
2018-04-12T04:00:55.522Z,83.60
2018-04-12T04:01:55.331Z,83.40
2018-04-12T04:02:55.290Z,83.00
2018-04-12T04:03:55.174Z,82.30
2018-04-12T04:04:55.226Z,84.90
2018-04-12T04:05:55.025Z,80.20
2018-04-12T04:06:55.007Z,82.40
2018-04-12T04:07:54.845Z,79.00
2018-04-12T04:08:54.814Z,82.20
2018-04-12T04:09:54.709Z,79.30
2018-04-12T04:10:54.661Z,82.10
2018-04-12T04:11:54.530Z,78.10
2018-04-12T04:12:54.533Z,78.30
2018-04-12T04:13:54.376Z,77.00
2018-04-12T04:14:54.348Z,75.80
2018-04-12T04:15:54.231Z,78.70
2018-04-12T04:16:54.259Z,78.80
2018-04-12T04:17:54.186Z,78.30
2018-04-12T04:18:54.076Z,77.50
2018-04-12T04:19:53.891Z,77.30
2018-04-12T04:20:54.020Z,76.10
2018-04-12T04:21:53.730Z,78.80
2018-04-12T04:22:53.778Z,77.60
2018-04-12T04:23:53.578Z,78.60
2018-04-12T04:24:53.513Z,75.80
2018-04-12T04:25:53.430Z,89.50
2018-04-12T04:26:53.397Z,87.90
2018-04-12T04:27:53.248Z,100.40
2018-04-12T04:28:53.196Z,89.90
2018-04-12T04:29:53.097Z,111.40
2018-04-12T04:30:53.169Z,84.80
2018-04-12T04:31:52.953Z,78.40
2018-04-12T04:32:52.965Z,75.70
2018-04-12T04:33:52.779Z,76.20
2018-04-12T04:34:52.739Z,74.50
2018-04-12T04:35:52.612Z,75.80
2018-04-12T04:36:52.645Z,74.80
2018-04-12T04:37:52.479Z,74.40
2018-04-12T04:38:52.397Z,74.00
2018-04-12T04:39:52.336Z,73.80
2018-04-12T04:40:52.268Z,72.30
2018-04-12T04:41:52.156Z,72.80
2018-04-12T04:42:52.198Z,72.80
2018-04-12T04:43:51.973Z,72.30
2018-04-12T04:44:52.060Z,70.70
2018-04-12T04:45:51.817Z,72.50
2018-04-12T04:46:51.880Z,71.40
2018-04-12T04:47:51.805Z,73.30
2018-04-12T04:48:51.702Z,71.00
2018-04-12T04:49:51.502Z,69.50
2018-04-12T04:50:51.918Z,69.50
2018-04-12T04:51:51.370Z,68.60
2018-04-12T04:52:51.370Z,66.70
2018-04-12T04:53:51.173Z,67.70
2018-04-12T04:54:51.226Z,76.50
2018-04-12T04:55:51.025Z,68.70
2018-04-12T04:56:51.038Z,66.30
2018-04-12T04:57:50.862Z,66.30
2018-04-12T04:58:50.875Z,64.50
2018-04-12T04:59:50.704Z,67.10
2018-04-12T05:00:50.655Z,67.80
2018-04-12T05:01:50.542Z,65.90
2018-04-12T05:02:50.592Z,65.60
2018-04-12T05:03:50.405Z,65.20
2018-04-12T05:04:50.376Z,65.80
2018-04-12T05:05:50.227Z,64.00
2018-04-12T05:06:50.177Z,63.70
2018-04-12T05:07:50.068Z,64.80
2018-04-12T05:08:50.141Z,62.90
2018-04-12T05:09:49.919Z,63.30
2018-04-12T05:10:49.930Z,62.40
2018-04-12T05:11:49.735Z,61.70
2018-04-12T05:12:49.677Z,61.50
2018-04-12T05:13:49.602Z,61.90
2018-04-12T05:14:49.625Z,63.40
2018-04-12T05:15:49.423Z,62.40
2018-04-12T05:16:49.431Z,60.10
2018-04-12T05:17:49.262Z,60.60
2018-04-12T05:18:49.268Z,59.80
2018-04-12T05:19:49.105Z,58.00
2018-04-12T05:20:49.042Z,58.60
2018-04-12T05:21:48.937Z,57.80
2018-04-12T05:22:48.949Z,59.60
2018-04-12T05:23:48.832Z,58.80
2018-04-12T05:24:48.766Z,59.40
2018-04-12T05:25:48.656Z,58.00
2018-04-12T05:26:48.686Z,59.00
2018-04-12T05:27:48.510Z,57.00
2018-04-12T05:28:48.523Z,57.40
2018-04-12T05:29:48.323Z,58.50
2018-04-12T05:30:48.328Z,57.00
2018-04-12T05:31:48.148Z,56.40
2018-04-12T05:32:48.099Z,56.80
2018-04-12T05:33:48.012Z,56.50
2018-04-12T05:34:48.002Z,54.50
2018-04-12T05:35:47.829Z,54.10
2018-04-12T05:36:47.818Z,53.80
2018-04-12T05:37:47.671Z,52.20
2018-04-12T05:38:47.658Z,53.60
2018-04-12T05:39:47.512Z,53.90
2018-04-12T05:40:47.546Z,54.80
2018-04-12T05:41:47.367Z,53.90
2018-04-12T05:42:47.348Z,53.60
2018-04-12T05:43:47.242Z,53.20
2018-04-12T05:44:47.187Z,53.50
2018-04-12T05:45:47.033Z,52.50
2018-04-12T05:46:47.061Z,52.60
2018-04-12T05:47:46.897Z,51.70
2018-04-12T05:48:46.875Z,52.50
2018-04-12T05:49:46.727Z,50.90
2018-04-12T05:50:46.677Z,51.90
2018-04-12T05:51:46.545Z,52.00
2018-04-12T05:52:46.530Z,51.60
2018-04-12T05:53:46.392Z,51.70
2018-04-12T05:54:46.408Z,50.50
2018-04-12T05:55:46.251Z,49.80
2018-04-12T05:56:46.211Z,50.20
2018-04-12T05:57:46.077Z,49.50
2018-04-12T05:58:46.066Z,49.30
2018-04-12T05:59:45.922Z,49.90
2018-04-12T06:00:45.960Z,49.30
2018-04-12T06:01:45.760Z,49.90
2018-04-12T06:02:45.750Z,50.30
2018-04-12T06:03:45.610Z,49.50
2018-04-12T06:04:45.640Z,49.90
2018-04-12T06:05:45.457Z,49.40
2018-04-12T06:06:45.457Z,48.50
2018-04-12T06:07:45.277Z,48.80
2018-04-12T06:08:45.265Z,49.40
2018-04-12T06:09:45.133Z,48.80
2018-04-12T06:10:45.121Z,47.70
2018-04-12T06:11:44.976Z,47.80
2018-04-12T06:12:45.019Z,48.20
2018-04-12T06:13:44.813Z,47.60
2018-04-12T06:14:44.802Z,49.40
2018-04-12T06:15:44.651Z,47.80
2018-04-12T06:16:44.595Z,49.70
2018-04-12T06:17:44.479Z,49.20
2018-04-12T06:18:44.435Z,44.60
2018-04-12T06:19:44.339Z,45.60
2018-04-12T06:20:44.323Z,45.90
2018-04-12T06:21:44.205Z,47.00
2018-04-12T06:22:44.136Z,47.00
2018-04-12T06:23:44.007Z,48.10
2018-04-12T06:24:44.055Z,48.00
2018-04-12T06:25:43.883Z,47.70
2018-04-12T06:26:43.893Z,41.80
2018-04-12T06:27:43.693Z,46.10
2018-04-12T06:28:43.674Z,44.80
2018-04-12T06:29:43.549Z,46.60
2018-04-12T06:30:43.591Z,43.50
2018-04-12T06:31:43.419Z,47.80
2018-04-12T06:32:43.374Z,46.10
2018-04-12T06:33:43.236Z,47.70
2018-04-12T06:34:43.180Z,46.20
2018-04-12T06:35:43.087Z,46.40
2018-04-12T06:36:43.143Z,46.00
2018-04-12T06:37:42.915Z,44.40
2018-04-12T06:38:42.909Z,44.10
2018-04-12T06:39:42.746Z,48.20
2018-04-12T06:40:42.719Z,47.20
2018-04-12T06:41:42.610Z,46.80
2018-04-12T06:42:42.676Z,48.50
2018-04-12T06:43:42.432Z,48.10
2018-04-12T06:44:42.428Z,45.60
2018-04-12T06:45:42.285Z,48.10
2018-04-12T06:46:42.267Z,48.40
2018-04-12T06:47:42.155Z,47.30
2018-04-12T06:48:42.153Z,42.50
2018-04-12T06:49:41.968Z,46.00
2018-04-12T06:50:41.957Z,48.30
2018-04-12T06:51:41.805Z,48.40
2018-04-12T06:52:41.814Z,44.20
2018-04-12T06:53:41.667Z,47.70
2018-04-12T06:54:41.678Z,46.70
2018-04-12T06:55:41.495Z,48.50
2018-04-12T06:56:41.497Z,44.50
2018-04-12T06:57:41.357Z,44.90
2018-04-12T06:58:41.292Z,48.10
2018-04-12T06:59:41.169Z,47.70
2018-04-12T07:00:41.201Z,48.40
2018-04-12T07:01:41.042Z,49.20
2018-04-12T07:02:41.056Z,49.50
2018-04-12T07:03:40.882Z,45.70
2018-04-12T07:04:41.715Z,46.90
2018-04-12T07:05:40.709Z,47.20
2018-04-12T07:06:40.743Z,43.30
2018-04-12T07:07:40.576Z,47.50
2018-04-12T07:08:40.558Z,46.80
2018-04-12T07:09:40.407Z,46.40
2018-04-12T07:10:40.349Z,46.30
2018-04-12T07:11:40.247Z,47.00
2018-04-12T07:12:40.260Z,47.30
2018-04-12T07:13:40.132Z,48.80
2018-04-12T07:14:40.089Z,46.90
2018-04-12T07:15:39.924Z,45.50
2018-04-12T07:16:39.885Z,46.90
2018-04-12T07:17:39.768Z,48.60
2018-04-12T07:18:39.831Z,49.00
2018-04-12T07:19:39.633Z,49.20
2018-04-12T07:20:39.593Z,47.90
2018-04-12T07:21:39.440Z,48.20
2018-04-12T07:22:39.406Z,49.00
2018-04-12T07:23:39.315Z,45.20
2018-04-12T07:24:39.325Z,45.90
2018-04-12T07:25:39.139Z,47.30
2018-04-12T07:26:39.138Z,47.60
2018-04-12T07:27:39.006Z,48.00
2018-04-12T07:28:38.983Z,48.60
2018-04-12T07:29:38.834Z,50.00
2018-04-12T07:30:38.853Z,47.50
2018-04-12T07:31:38.667Z,48.40
2018-04-12T07:32:38.812Z,47.30
2018-04-12T07:33:38.801Z,46.90
2018-04-12T07:34:38.587Z,47.50
2018-04-12T07:35:38.357Z,48.30
2018-04-12T07:36:38.430Z,49.00
2018-04-12T07:37:38.197Z,47.70
2018-04-12T07:38:38.177Z,47.70
2018-04-12T07:39:38.081Z,45.00
2018-04-12T07:40:38.000Z,47.60
2018-04-12T07:41:37.880Z,46.00
2018-04-12T07:44:20.197Z,46.60
2018-04-12T07:45:20.272Z,46.40
2018-04-12T07:46:20.013Z,45.70
2018-04-12T07:47:19.957Z,45.50
2018-04-12T07:48:19.900Z,48.40
2018-04-12T07:49:19.826Z,47.10
2018-04-12T07:50:19.774Z,46.60
2018-04-12T07:51:19.728Z,49.20
2018-04-12T07:52:19.539Z,46.60
2018-04-12T07:53:19.644Z,46.80
2018-04-12T07:54:19.416Z,45.80
2018-04-12T07:55:19.394Z,46.50
2018-04-12T07:56:19.350Z,47.30
2018-04-12T07:57:19.274Z,44.70
2018-04-12T07:58:19.063Z,47.40
2018-04-12T07:59:19.008Z,46.20
2018-04-12T08:00:18.931Z,47.20
2018-04-12T08:01:18.885Z,48.20
2018-04-12T08:02:18.775Z,48.00
2018-04-12T08:03:18.705Z,47.70
2018-04-12T08:04:18.728Z,47.10
2018-04-12T08:05:18.559Z,48.10
2018-04-12T08:06:18.452Z,48.10
2018-04-12T08:07:18.370Z,47.10
2018-04-12T08:08:18.272Z,46.80
2018-04-12T08:09:18.319Z,47.70
2018-04-12T08:10:18.108Z,49.00
2018-04-12T08:11:18.172Z,48.90
2018-04-12T08:12:17.949Z,49.70
2018-04-12T08:13:17.936Z,49.10
2018-04-12T08:14:17.811Z,49.20
2018-04-12T08:15:17.845Z,47.80
2018-04-12T08:16:17.846Z,49.00
2018-04-12T08:17:17.680Z,50.00
2018-04-12T08:18:17.498Z,49.30
2018-04-12T08:19:18.249Z,48.90
2018-04-12T08:20:17.333Z,48.50
2018-04-12T08:21:17.319Z,50.30
2018-04-12T08:22:17.174Z,48.30
2018-04-12T08:23:17.179Z,49.40
2018-04-12T08:24:17.025Z,48.00
2018-04-12T08:25:16.992Z,50.50
2018-04-12T08:26:16.898Z,48.70
2018-04-12T08:27:16.903Z,49.40
2018-04-12T08:28:16.697Z,47.50
2018-04-12T08:29:16.717Z,48.20
2018-04-12T08:30:16.545Z,49.00
2018-04-12T08:31:16.564Z,49.90
2018-04-12T08:32:16.527Z,49.20
2018-04-12T08:33:16.441Z,50.40
2018-04-12T08:34:16.232Z,48.70
2018-04-12T08:35:16.295Z,49.60
2018-04-12T08:36:16.103Z,50.10
2018-04-12T08:37:16.604Z,51.60
2018-04-12T08:38:15.953Z,50.50
2018-04-12T08:40:58.205Z,51.90
2018-04-12T08:41:58.206Z,51.70
2018-04-12T08:42:58.043Z,53.20
2018-04-12T08:43:58.077Z,52.10
2018-04-12T08:44:57.896Z,52.20
2018-04-12T08:45:57.911Z,52.70
2018-04-12T08:46:57.700Z,50.20
2018-04-12T08:47:57.719Z,51.40
2018-04-12T08:48:57.548Z,52.40
2018-04-12T08:49:57.607Z,51.90
2018-04-12T08:50:57.390Z,51.60
2018-04-12T08:51:57.443Z,52.90
2018-04-12T08:52:57.277Z,53.50
2018-04-12T08:53:57.220Z,52.80
2018-04-12T08:54:57.107Z,52.50
2018-04-12T08:55:57.045Z,54.50
2018-04-12T08:56:56.931Z,53.60
2018-04-12T08:57:57.063Z,52.10
2018-04-12T08:58:56.770Z,55.30
2018-04-12T08:59:56.748Z,54.10
2018-04-12T09:00:56.607Z,54.30
2018-04-12T09:01:56.589Z,54.50
2018-04-12T09:02:56.448Z,52.30
2018-04-12T09:03:56.466Z,53.20
2018-04-12T09:04:57.208Z,54.00
2018-04-12T09:05:56.273Z,54.40
2018-04-12T09:06:56.140Z,53.30
2018-04-12T09:07:56.222Z,54.30
2018-04-12T09:08:55.992Z,54.10
2018-04-12T09:09:55.992Z,54.30
2018-04-12T09:10:55.900Z,53.90
2018-04-12T09:11:55.791Z,52.30
2018-04-12T09:12:55.673Z,53.60
2018-04-12T09:13:55.799Z,53.10
2018-04-12T09:14:55.563Z,52.10
2018-04-12T09:15:55.514Z,53.60
2018-04-12T09:16:55.407Z,52.90
2018-04-12T09:17:55.404Z,52.00
2018-04-12T09:18:55.186Z,51.00
2018-04-12T09:19:55.155Z,52.90
2018-04-12T09:20:55.035Z,52.80
2018-04-12T09:21:55.047Z,51.60
2018-04-12T09:22:54.872Z,53.30
2018-04-12T09:23:54.875Z,53.10
2018-04-12T09:24:54.727Z,53.90
2018-04-12T09:25:54.780Z,53.10
2018-04-12T09:26:54.563Z,51.50
2018-04-12T09:27:54.581Z,52.90
2018-04-12T09:28:54.411Z,51.20
2018-04-12T09:29:54.411Z,52.00
2018-04-12T09:30:54.251Z,52.70
2018-04-12T09:31:54.180Z,50.90
2018-04-12T09:32:54.096Z,50.50
2018-04-12T09:33:54.096Z,49.50
2018-04-12T09:34:53.964Z,50.60
2018-04-12T09:35:53.900Z,52.00
2018-04-12T09:36:53.796Z,50.80
2018-04-12T09:37:53.816Z,50.00
2018-04-12T09:38:53.623Z,50.40
2018-04-12T09:39:53.678Z,50.30
2018-04-12T09:40:53.501Z,50.20
2018-04-12T09:41:53.434Z,48.30
2018-04-12T09:42:53.325Z,49.80
2018-04-12T09:43:53.377Z,49.60
2018-04-12T09:44:53.189Z,49.50
2018-04-12T09:45:53.158Z,47.80
2018-04-12T09:46:53.021Z,49.50
2018-04-12T09:47:53.192Z,47.70
2018-04-12T09:48:52.873Z,49.50
2018-04-12T09:49:52.964Z,47.60
2018-04-12T09:50:52.751Z,48.70
2018-04-12T09:51:52.688Z,47.80
2018-04-12T09:52:52.579Z,46.60
2018-04-12T09:53:52.596Z,47.30
2018-04-12T09:54:52.425Z,46.70
2018-04-12T09:55:52.394Z,44.80
2018-04-12T09:56:52.299Z,44.60
2018-04-12T09:57:52.326Z,46.50
2018-04-12T09:58:52.163Z,46.40
2018-04-12T09:59:52.171Z,45.90
2018-04-12T10:00:51.992Z,45.80
2018-04-12T10:01:52.076Z,46.40
2018-04-12T10:02:51.866Z,44.60
2018-04-12T10:03:51.853Z,45.80
2018-04-12T10:04:51.713Z,44.00
2018-04-12T10:05:51.696Z,45.00
2018-04-12T10:06:51.573Z,44.60
2018-04-12T10:07:51.580Z,45.10
2018-04-12T10:08:51.433Z,45.20
2018-04-12T10:09:51.488Z,47.30
2018-04-12T10:10:51.293Z,45.50
2018-04-12T10:11:51.287Z,45.50
2018-04-12T10:12:51.130Z,45.80
2018-04-12T10:13:51.113Z,46.60
2018-04-12T10:14:50.980Z,46.40
2018-04-12T10:15:51.026Z,46.20
2018-04-12T10:16:50.822Z,45.70
2018-04-12T10:17:50.814Z,46.50
2018-04-12T10:18:50.701Z,47.20
2018-04-12T10:19:50.714Z,45.90
2018-04-12T10:20:50.560Z,44.80
2018-04-12T10:21:50.521Z,46.00
2018-04-12T10:22:50.401Z,46.80
2018-04-12T10:23:50.443Z,45.00
2018-04-12T10:24:50.257Z,45.40
2018-04-12T10:25:50.278Z,45.10
2018-04-12T10:26:50.110Z,43.90
2018-04-12T10:27:50.145Z,43.60
2018-04-12T10:28:50.778Z,44.50
2018-04-12T10:29:49.920Z,44.50
2018-04-12T10:30:49.870Z,44.90
2018-04-12T10:31:49.872Z,44.60
2018-04-12T10:32:49.733Z,44.70
2018-04-12T10:33:49.686Z,44.30
2018-04-12T10:34:49.574Z,44.80
2018-04-12T10:35:49.621Z,45.00
2018-04-12T10:36:49.401Z,44.60
2018-04-12T10:37:49.510Z,45.40
2018-04-12T10:38:49.250Z,44.60
2018-04-12T10:39:49.473Z,45.20
2018-04-12T10:40:49.099Z,45.50
2018-04-12T10:41:49.107Z,46.10
2018-04-12T10:42:48.960Z,44.80
2018-04-12T10:43:48.921Z,44.20
2018-04-12T10:44:48.830Z,46.10
2018-04-12T10:45:48.845Z,45.30
2018-04-12T10:46:48.729Z,47.00
2018-04-12T10:47:48.639Z,46.90
2018-04-12T10:48:48.533Z,45.40
2018-04-12T10:49:48.550Z,46.60
2018-04-12T10:50:48.382Z,45.80
2018-04-12T10:51:48.403Z,46.20
2018-04-12T10:52:48.241Z,44.00
2018-04-12T10:53:48.282Z,44.50
2018-04-12T10:54:48.068Z,45.90
2018-04-12T10:55:48.086Z,45.80
2018-04-12T10:56:48.002Z,45.60
2018-04-12T10:57:47.908Z,45.30
2018-04-12T10:58:47.792Z,46.50
2018-04-12T10:59:47.802Z,45.90
2018-04-12T11:00:47.743Z,46.70
2018-04-12T11:01:47.655Z,46.60
2018-04-12T11:02:47.488Z,46.10
2018-04-12T11:03:47.517Z,46.80
2018-04-12T11:04:47.349Z,46.10
2018-04-12T11:05:47.473Z,46.30
2018-04-12T11:06:47.220Z,45.30
2018-04-12T11:07:47.205Z,46.80
2018-04-12T11:08:47.060Z,46.50
2018-04-12T11:09:47.044Z,45.80
2018-04-12T11:10:46.902Z,46.40
2018-04-12T11:11:46.857Z,46.60
2018-04-12T11:12:46.757Z,46.20
2018-04-12T11:13:46.786Z,43.40
2018-04-12T11:14:46.632Z,45.70
2018-04-12T11:15:46.572Z,45.80
2018-04-12T11:16:46.488Z,44.90
2018-04-12T11:17:46.520Z,44.60
2018-04-12T11:18:46.353Z,45.90
2018-04-12T11:19:46.349Z,45.30
2018-04-12T11:20:46.173Z,43.80
2018-04-12T11:21:46.089Z,44.20
2018-04-12T11:22:46.033Z,42.80
2018-04-12T11:23:46.072Z,43.20
2018-04-12T11:24:45.935Z,42.30
2018-04-12T11:25:45.832Z,42.00
2018-04-12T11:26:45.720Z,41.80
2018-04-12T11:27:45.776Z,41.40
2018-04-12T11:28:45.588Z,40.20
2018-04-12T11:29:45.559Z,42.70
2018-04-12T11:30:45.403Z,40.90
2018-04-12T11:31:45.459Z,41.00
2018-04-12T11:32:45.345Z,41.20
2018-04-12T11:33:45.267Z,41.10
2018-04-12T11:34:45.159Z,41.00
2018-04-12T11:35:45.184Z,40.20
2018-04-12T11:36:44.989Z,40.60
2018-04-12T11:37:45.161Z,40.80
2018-04-12T11:38:44.867Z,38.30
2018-04-12T11:39:44.928Z,38.80
2018-04-12T11:40:44.709Z,40.80
2018-04-12T11:41:44.712Z,39.70
2018-04-12T11:42:44.599Z,40.80
2018-04-12T11:43:44.647Z,39.50
2018-04-12T11:44:44.434Z,38.60
2018-04-12T11:45:44.387Z,40.90
2018-04-12T11:46:44.281Z,41.50
2018-04-12T11:49:26.329Z,40.70
2018-04-12T11:50:26.220Z,40.00
2018-04-12T11:51:26.127Z,41.30
2018-04-12T11:52:26.148Z,40.50
2018-04-12T11:53:26.166Z,40.40
2018-04-12T11:54:26.015Z,40.60
2018-04-12T11:55:25.824Z,41.30
2018-04-12T11:56:25.862Z,41.40
2018-04-12T11:57:25.666Z,41.10
2018-04-12T11:58:25.663Z,40.40
2018-04-12T11:59:25.537Z,42.00
2018-04-12T12:00:25.570Z,42.80
2018-04-12T12:01:25.380Z,41.50
2018-04-12T12:02:25.384Z,41.40
2018-04-12T12:03:25.247Z,42.60
2018-04-12T12:04:25.228Z,42.30
2018-04-12T12:05:25.089Z,40.60
2018-04-12T12:06:25.118Z,41.90
2018-04-12T12:07:24.949Z,43.10
2018-04-12T12:08:24.932Z,41.80
2018-04-12T12:09:24.826Z,41.70
2018-04-12T12:10:24.815Z,41.80
2018-04-12T12:11:24.659Z,42.60
2018-04-12T12:12:24.661Z,41.70
2018-04-12T12:13:24.507Z,41.80
2018-04-12T12:14:24.690Z,42.50
2018-04-12T12:15:24.385Z,41.90
2018-04-12T12:16:24.354Z,42.90
2018-04-12T12:17:24.219Z,42.90
2018-04-12T12:18:24.259Z,42.70
2018-04-12T12:19:24.103Z,41.80
2018-04-12T12:20:24.103Z,42.40
2018-04-12T12:21:23.914Z,43.00
2018-04-12T12:22:23.924Z,41.90
2018-04-12T12:23:23.767Z,40.90
2018-04-12T12:24:23.784Z,41.30
2018-04-12T12:25:23.636Z,42.90
2018-04-12T12:26:23.658Z,41.30
2018-04-12T12:27:23.488Z,42.70
2018-04-12T12:28:23.511Z,42.20
2018-04-12T12:29:23.323Z,42.70
2018-04-12T12:30:23.364Z,42.40
2018-04-12T12:31:23.183Z,41.40
2018-04-12T12:32:23.236Z,41.60
2018-04-12T12:33:23.068Z,40.70
2018-04-12T12:34:23.041Z,42.40
2018-04-12T12:35:22.897Z,43.40
2018-04-12T12:36:22.839Z,42.70
2018-04-12T12:37:22.848Z,43.30
2018-04-12T12:38:22.749Z,43.10
2018-04-12T12:39:22.586Z,42.20
2018-04-12T12:40:22.624Z,43.20
2018-04-12T12:41:22.457Z,44.00
2018-04-12T12:42:22.466Z,42.90
2018-04-12T12:43:22.298Z,42.80
2018-04-12T12:44:22.274Z,41.60
2018-04-12T12:45:22.141Z,42.90
2018-04-12T12:46:22.231Z,43.80
2018-04-12T12:47:21.986Z,42.00
2018-04-12T12:48:21.998Z,43.20
2018-04-12T12:49:21.861Z,43.10
2018-04-12T12:50:21.849Z,45.10
2018-04-12T12:51:21.721Z,42.70
2018-04-12T12:52:21.711Z,41.80
2018-04-12T12:53:21.559Z,42.50
2018-04-12T12:54:21.528Z,43.50
2018-04-12T12:55:21.394Z,43.50
2018-04-12T12:56:21.392Z,42.80
2018-04-12T12:57:21.286Z,42.80
2018-04-12T12:58:21.241Z,43.10
2018-04-12T12:59:21.125Z,42.80
2018-04-12T13:00:21.039Z,42.50